sensor_id;sensor_type;location;lat;lon;timestamp;P1;durP1;ratioP1;P2;durP2;ratioP2
55218;SDS011;65463;43.864;20.136;2023-01-04T11:10:15;97.18;;;42.60;;
55218;SDS011;65463;43.864;20.136;2023-01-04T11:12:43;95.30;;;42.03;;
55218;SDS011;65463;43.864;20.136;2023-01-04T11:15:10;108.05;;;44.72;;
55218;SDS011;65463;43.864;20.136;2023-01-04T11:17:36;95.28;;;42.65;;
55218;SDS011;65463;43.864;20.136;2023-01-04T11:20:02;96.40;;;42.03;;
55218;SDS011;65463;43.864;20.136;2023-01-04T11:25:06;106.55;;;46.03;;
55218;SDS011;65463;43.864;20.136;2023-01-04T11:27:41;109.45;;;46.97;;
55218;SDS011;65463;43.864;20.136;2023-01-04T11:30:15;102.68;;;43.90;;
55218;SDS011;65463;43.864;20.136;2023-01-04T11:32:48;99.78;;;38.88;;
55218;SDS011;65463;43.864;20.136;2023-01-04T11:35:15;108.43;;;41.22;;
55218;SDS011;65463;43.864;20.136;2023-01-04T11:37:42;96.20;;;38.35;;
55218;SDS011;65463;43.864;20.136;2023-01-04T11:42:43;118.38;;;46.13;;
55218;SDS011;65463;43.864;20.136;2023-01-04T11:45:17;97.25;;;43.72;;
55218;SDS011;65463;43.864;20.136;2023-01-04T11:47:46;92.63;;;40.10;;
55218;SDS011;65463;43.864;20.136;2023-01-04T11:50:24;101.85;;;40.15;;
55218;SDS011;65463;43.864;20.136;2023-01-04T11:52:58;95.10;;;43.10;;
55218;SDS011;65463;43.864;20.136;2023-01-04T11:55:25;102.72;;;45.92;;
55218;SDS011;65463;43.864;20.136;2023-01-04T11:58:11;94.50;;;40.65;;
55218;SDS011;65463;43.864;20.136;2023-01-04T12:01:00;89.95;;;39.80;;
55218;SDS011;65463;43.864;20.136;2023-01-04T12:03:29;87.80;;;41.47;;
55218;SDS011;65463;43.864;20.136;2023-01-04T12:06:16;102.22;;;43.60;;
55218;SDS011;65463;43.864;20.136;2023-01-04T12:08:42;91.63;;;40.95;;
55218;SDS011;65463;43.864;20.136;2023-01-04T12:11:08;95.30;;;42.17;;
55218;SDS011;65463;43.864;20.136;2023-01-04T12:13:40;91.10;;;40.80;;
55218;SDS011;65463;43.864;20.136;2023-01-04T12:18:40;89.68;;;42.50;;
55218;SDS011;65463;43.864;20.136;2023-01-04T12:21:15;99.28;;;44.53;;
55218;SDS011;65463;43.864;20.136;2023-01-04T12:23:42;99.18;;;44.30;;
55218;SDS011;65463;43.864;20.136;2023-01-04T12:26:09;98.65;;;43.75;;
55218;SDS011;65463;43.864;20.136;2023-01-04T12:28:40;93.40;;;42.72;;
55218;SDS011;65463;43.864;20.136;2023-01-04T12:33:51;96.60;;;45.28;;
55218;SDS011;65463;43.864;20.136;2023-01-04T12:36:20;102.97;;;47.05;;
55218;SDS011;65463;43.864;20.136;2023-01-04T12:46:51;107.60;;;49.50;;
55218;SDS011;65463;43.864;20.136;2023-01-04T12:49:43;100.10;;;49.28;;
55218;SDS011;65463;43.864;20.136;2023-01-04T12:54:57;99.20;;;48.65;;
55218;SDS011;65463;43.864;20.136;2023-01-04T13:02:41;125.18;;;41.40;;
55218;SDS011;65463;43.864;20.136;2023-01-04T13:05:30;125.40;;;43.33;;
55218;SDS011;65463;43.864;20.136;2023-01-04T13:07:58;102.22;;;37.90;;
55218;SDS011;65463;43.864;20.136;2023-01-04T13:10:47;103.95;;;38.65;;
55218;SDS011;65463;43.864;20.136;2023-01-04T13:18:13;107.95;;;42.25;;
55218;SDS011;65463;43.864;20.136;2023-01-04T13:20:45;104.25;;;39.42;;
55218;SDS011;65463;43.864;20.136;2023-01-04T13:23:12;111.60;;;40.13;;
55218;SDS011;65463;43.864;20.136;2023-01-04T13:25:38;106.53;;;39.58;;
55218;SDS011;65463;43.864;20.136;2023-01-04T13:28:04;100.40;;;41.17;;
55218;SDS011;65463;43.864;20.136;2023-01-04T13:30:35;108.00;;;40.58;;
55218;SDS011;65463;43.864;20.136;2023-01-04T13:35:40;101.95;;;40.33;;
55218;SDS011;65463;43.864;20.136;2023-01-04T13:38:10;106.88;;;40.55;;
55218;SDS011;65463;43.864;20.136;2023-01-04T13:40:42;104.20;;;40.42;;
55218;SDS011;65463;43.864;20.136;2023-01-04T13:48:16;102.75;;;40.60;;
55218;SDS011;65463;43.864;20.136;2023-01-04T13:50:45;103.97;;;41.42;;
55218;SDS011;65463;43.864;20.136;2023-01-04T13:53:23;111.60;;;42.40;;
55218;SDS011;65463;43.864;20.136;2023-01-04T13:55:50;108.47;;;44.75;;
55218;SDS011;65463;43.864;20.136;2023-01-04T13:58:27;111.10;;;49.17;;
55218;SDS011;65463;43.864;20.136;2023-01-04T14:05:50;114.50;;;41.55;;
55218;SDS011;65463;43.864;20.136;2023-01-04T14:08:28;109.20;;;42.80;;
55218;SDS011;65463;43.864;20.136;2023-01-04T14:10:56;105.45;;;40.28;;
55218;SDS011;65463;43.864;20.136;2023-01-04T14:13:22;109.80;;;43.20;;
55218;SDS011;65463;43.864;20.136;2023-01-04T14:16:05;113.15;;;43.90;;
55218;SDS011;65463;43.864;20.136;2023-01-04T14:18:35;109.47;;;44.08;;
55218;SDS011;65463;43.864;20.136;2023-01-04T14:21:01;103.53;;;43.30;;
55218;SDS011;65463;43.864;20.136;2023-01-04T14:23:32;120.78;;;43.30;;
55218;SDS011;65463;43.864;20.136;2023-01-04T14:25:59;117.20;;;46.30;;
55218;SDS011;65463;43.864;20.136;2023-01-04T14:28:27;107.75;;;45.78;;
55218;SDS011;65463;43.864;20.136;2023-01-04T14:36:17;116.53;;;48.08;;
55218;SDS011;65463;43.864;20.136;2023-01-04T14:43:46;124.05;;;55.33;;
55218;SDS011;65463;43.864;20.136;2023-01-04T14:46:13;118.80;;;53.53;;
55218;SDS011;65463;43.864;20.136;2023-01-04T14:48:39;119.45;;;53.83;;
55218;SDS011;65463;43.864;20.136;2023-01-04T14:51:05;131.25;;;59.67;;
55218;SDS011;65463;43.864;20.136;2023-01-04T14:53:32;137.30;;;60.10;;
55218;SDS011;65463;43.864;20.136;2023-01-04T14:55:59;133.38;;;57.53;;
55218;SDS011;65463;43.864;20.136;2023-01-04T14:58:25;127.70;;;61.42;;
55218;SDS011;65463;43.864;20.136;2023-01-04T15:00:51;136.27;;;68.47;;
55218;SDS011;65463;43.864;20.136;2023-01-04T15:03:17;136.43;;;58.92;;
55218;SDS011;65463;43.864;20.136;2023-01-04T15:05:44;132.77;;;58.33;;
55218;SDS011;65463;43.864;20.136;2023-01-04T15:08:11;132.02;;;55.03;;
55218;SDS011;65463;43.864;20.136;2023-01-04T15:10:39;132.25;;;57.38;;
55218;SDS011;65463;43.864;20.136;2023-01-04T15:13:05;118.03;;;55.97;;
55218;SDS011;65463;43.864;20.136;2023-01-04T15:15:31;116.63;;;55.90;;
55218;SDS011;65463;43.864;20.136;2023-01-04T15:17:57;130.20;;;58.55;;
55218;SDS011;65463;43.864;20.136;2023-01-04T15:20:24;143.90;;;56.90;;
55218;SDS011;65463;43.864;20.136;2023-01-04T15:22:50;125.28;;;57.20;;
55218;SDS011;65463;43.864;20.136;2023-01-04T15:25:16;129.55;;;58.60;;
55218;SDS011;65463;43.864;20.136;2023-01-04T15:27:42;130.80;;;56.63;;
55218;SDS011;65463;43.864;20.136;2023-01-04T15:30:09;130.88;;;54.53;;
55218;SDS011;65463;43.864;20.136;2023-01-04T15:32:35;130.95;;;55.42;;
55218;SDS011;65463;43.864;20.136;2023-01-04T15:35:01;127.63;;;54.45;;
55218;SDS011;65463;43.864;20.136;2023-01-04T15:37:28;129.13;;;55.60;;
55218;SDS011;65463;43.864;20.136;2023-01-04T15:39:54;128.60;;;55.63;;
55218;SDS011;65463;43.864;20.136;2023-01-04T15:42:20;132.88;;;58.03;;
55218;SDS011;65463;43.864;20.136;2023-01-04T15:45:05;253.05;;;129.00;;
55218;SDS011;65463;43.864;20.136;2023-01-04T15:47:31;136.77;;;63.30;;
55218;SDS011;65463;43.864;20.136;2023-01-04T15:49:58;126.15;;;52.45;;
55218;SDS011;65463;43.864;20.136;2023-01-04T15:52:24;107.78;;;49.65;;
55218;SDS011;65463;43.864;20.136;2023-01-04T15:54:50;120.78;;;53.50;;
55218;SDS011;65463;43.864;20.136;2023-01-04T15:57:16;126.70;;;53.95;;
55218;SDS011;65463;43.864;20.136;2023-01-04T15:59:44;131.27;;;58.08;;
55218;SDS011;65463;43.864;20.136;2023-01-04T16:02:11;140.07;;;61.17;;
55218;SDS011;65463;43.864;20.136;2023-01-04T16:04:37;125.22;;;55.22;;
55218;SDS011;65463;43.864;20.136;2023-01-04T16:07:03;141.57;;;60.55;;
55218;SDS011;65463;43.864;20.136;2023-01-04T16:09:29;126.65;;;56.80;;
55218;SDS011;65463;43.864;20.136;2023-01-04T16:11:55;133.32;;;58.42;;
55218;SDS011;65463;43.864;20.136;2023-01-04T16:14:40;125.40;;;53.42;;
55218;SDS011;65463;43.864;20.136;2023-01-04T16:17:06;134.25;;;55.85;;
55218;SDS011;65463;43.864;20.136;2023-01-04T16:19:32;132.93;;;57.90;;
55218;SDS011;65463;43.864;20.136;2023-01-04T16:21:59;142.43;;;62.22;;
55218;SDS011;65463;43.864;20.136;2023-01-04T16:24:25;129.00;;;61.50;;
55218;SDS011;65463;43.864;20.136;2023-01-04T16:26:51;141.52;;;64.03;;
55218;SDS011;65463;43.864;20.136;2023-01-04T16:29:17;125.47;;;60.05;;
55218;SDS011;65463;43.864;20.136;2023-01-04T16:31:45;120.65;;;59.08;;
55218;SDS011;65463;43.864;20.136;2023-01-04T16:34:11;126.13;;;62.08;;
55218;SDS011;65463;43.864;20.136;2023-01-04T16:36:37;128.07;;;61.42;;
55218;SDS011;65463;43.864;20.136;2023-01-04T16:39:04;123.53;;;58.03;;
55218;SDS011;65463;43.864;20.136;2023-01-04T16:41:30;114.78;;;54.83;;
55218;SDS011;65463;43.864;20.136;2023-01-04T16:43:57;115.20;;;54.03;;
55218;SDS011;65463;43.864;20.136;2023-01-04T16:46:27;108.30;;;52.53;;
55218;SDS011;65463;43.864;20.136;2023-01-04T16:51:28;121.82;;;57.03;;
55218;SDS011;65463;43.864;20.136;2023-01-04T16:53:54;111.85;;;54.35;;
55218;SDS011;65463;43.864;20.136;2023-01-04T16:56:21;117.32;;;56.38;;
55218;SDS011;65463;43.864;20.136;2023-01-04T16:58:48;117.05;;;57.30;;
55218;SDS011;65463;43.864;20.136;2023-01-04T17:01:15;112.43;;;54.75;;
55218;SDS011;65463;43.864;20.136;2023-01-04T17:03:42;123.82;;;59.85;;
55218;SDS011;65463;43.864;20.136;2023-01-04T17:06:12;123.40;;;61.92;;
55218;SDS011;65463;43.864;20.136;2023-01-04T17:08:39;137.82;;;66.95;;
55218;SDS011;65463;43.864;20.136;2023-01-04T17:11:06;137.05;;;67.10;;
55218;SDS011;65463;43.864;20.136;2023-01-04T17:13:33;136.65;;;67.15;;
55218;SDS011;65463;43.864;20.136;2023-01-04T17:15:59;127.55;;;65.05;;
55218;SDS011;65463;43.864;20.136;2023-01-04T17:18:26;132.75;;;62.90;;
55218;SDS011;65463;43.864;20.136;2023-01-04T17:20:53;139.18;;;67.38;;
55218;SDS011;65463;43.864;20.136;2023-01-04T17:23:20;144.20;;;69.65;;
55218;SDS011;65463;43.864;20.136;2023-01-04T17:25:46;137.45;;;66.85;;
55218;SDS011;65463;43.864;20.136;2023-01-04T17:28:12;133.23;;;67.72;;
55218;SDS011;65463;43.864;20.136;2023-01-04T17:30:38;127.88;;;65.53;;
55218;SDS011;65463;43.864;20.136;2023-01-04T17:33:05;134.30;;;63.83;;
55218;SDS011;65463;43.864;20.136;2023-01-04T17:35:34;134.73;;;69.30;;
55218;SDS011;65463;43.864;20.136;2023-01-04T17:38:01;130.18;;;64.88;;
55218;SDS011;65463;43.864;20.136;2023-01-04T17:40:27;132.30;;;63.75;;
55218;SDS011;65463;43.864;20.136;2023-01-04T17:42:53;138.25;;;67.63;;
55218;SDS011;65463;43.864;20.136;2023-01-04T17:45:19;178.27;;;92.90;;
55218;SDS011;65463;43.864;20.136;2023-01-04T17:47:45;195.23;;;94.95;;
55218;SDS011;65463;43.864;20.136;2023-01-04T17:50:12;183.43;;;87.25;;
55218;SDS011;65463;43.864;20.136;2023-01-04T17:52:39;164.07;;;78.10;;
55218;SDS011;65463;43.864;20.136;2023-01-04T17:55:06;163.05;;;79.95;;
55218;SDS011;65463;43.864;20.136;2023-01-04T17:57:32;145.48;;;73.03;;
55218;SDS011;65463;43.864;20.136;2023-01-04T17:59:59;153.18;;;76.53;;
55218;SDS011;65463;43.864;20.136;2023-01-04T18:02:26;165.43;;;83.07;;
55218;SDS011;65463;43.864;20.136;2023-01-04T18:04:52;190.57;;;91.50;;
55218;SDS011;65463;43.864;20.136;2023-01-04T18:07:18;186.35;;;90.40;;
55218;SDS011;65463;43.864;20.136;2023-01-04T18:09:52;195.77;;;92.78;;
55218;SDS011;65463;43.864;20.136;2023-01-04T18:12:18;187.63;;;89.22;;
55218;SDS011;65463;43.864;20.136;2023-01-04T18:14:44;168.30;;;80.03;;
55218;SDS011;65463;43.864;20.136;2023-01-04T18:17:11;153.75;;;77.47;;
55218;SDS011;65463;43.864;20.136;2023-01-04T18:19:37;146.75;;;73.85;;
55218;SDS011;65463;43.864;20.136;2023-01-04T18:22:04;144.05;;;71.47;;
55218;SDS011;65463;43.864;20.136;2023-01-04T18:24:30;153.98;;;78.90;;
55218;SDS011;65463;43.864;20.136;2023-01-04T18:26:58;177.90;;;90.22;;
55218;SDS011;65463;43.864;20.136;2023-01-04T18:29:25;165.05;;;86.57;;
55218;SDS011;65463;43.864;20.136;2023-01-04T18:31:51;162.73;;;82.50;;
55218;SDS011;65463;43.864;20.136;2023-01-04T18:34:17;170.60;;;92.18;;
55218;SDS011;65463;43.864;20.136;2023-01-04T18:36:43;144.20;;;74.35;;
55218;SDS011;65463;43.864;20.136;2023-01-04T18:39:10;166.18;;;77.90;;
55218;SDS011;65463;43.864;20.136;2023-01-04T18:41:37;166.65;;;84.70;;
55218;SDS011;65463;43.864;20.136;2023-01-04T18:44:03;140.77;;;73.68;;
55218;SDS011;65463;43.864;20.136;2023-01-04T18:46:29;132.85;;;66.05;;
55218;SDS011;65463;43.864;20.136;2023-01-04T18:48:57;123.28;;;67.18;;
55218;SDS011;65463;43.864;20.136;2023-01-04T18:51:24;157.07;;;79.22;;
55218;SDS011;65463;43.864;20.136;2023-01-04T18:53:50;140.98;;;71.03;;
55218;SDS011;65463;43.864;20.136;2023-01-04T18:56:16;154.15;;;72.22;;
55218;SDS011;65463;43.864;20.136;2023-01-04T18:58:45;155.25;;;79.25;;
55218;SDS011;65463;43.864;20.136;2023-01-04T19:01:12;136.20;;;62.20;;
55218;SDS011;65463;43.864;20.136;2023-01-04T19:03:40;164.15;;;78.43;;
55218;SDS011;65463;43.864;20.136;2023-01-04T19:06:09;183.70;;;87.72;;
55218;SDS011;65463;43.864;20.136;2023-01-04T19:08:35;178.35;;;85.53;;
55218;SDS011;65463;43.864;20.136;2023-01-04T19:11:01;137.30;;;65.68;;
55218;SDS011;65463;43.864;20.136;2023-01-04T19:13:28;156.48;;;70.22;;
55218;SDS011;65463;43.864;20.136;2023-01-04T19:15:55;270.77;;;81.25;;
55218;SDS011;65463;43.864;20.136;2023-01-04T19:18:22;485.15;;;92.90;;
55218;SDS011;65463;43.864;20.136;2023-01-04T19:20:48;357.27;;;99.53;;
55218;SDS011;65463;43.864;20.136;2023-01-04T19:23:14;264.95;;;87.50;;
55218;SDS011;65463;43.864;20.136;2023-01-04T19:25:41;194.23;;;74.47;;
55218;SDS011;65463;43.864;20.136;2023-01-04T19:28:08;303.75;;;81.70;;
55218;SDS011;65463;43.864;20.136;2023-01-04T19:30:38;326.52;;;82.65;;
55218;SDS011;65463;43.864;20.136;2023-01-04T19:33:05;553.03;;;87.25;;
55218;SDS011;65463;43.864;20.136;2023-01-04T19:35:31;747.72;;;107.97;;
55218;SDS011;65463;43.864;20.136;2023-01-04T19:37:57;347.80;;;72.45;;
55218;SDS011;65463;43.864;20.136;2023-01-04T19:40:23;466.38;;;95.80;;
55218;SDS011;65463;43.864;20.136;2023-01-04T19:42:50;335.20;;;85.30;;
55218;SDS011;65463;43.864;20.136;2023-01-04T19:45:16;636.47;;;99.88;;
55218;SDS011;65463;43.864;20.136;2023-01-04T19:47:42;849.92;;;116.47;;
55218;SDS011;65463;43.864;20.136;2023-01-04T19:50:09;770.88;;;119.38;;
55218;SDS011;65463;43.864;20.136;2023-01-04T19:52:36;679.17;;;108.15;;
55218;SDS011;65463;43.864;20.136;2023-01-04T19:55:04;1034.93;;;125.03;;
55218;SDS011;65463;43.864;20.136;2023-01-04T19:57:30;697.95;;;95.95;;
55218;SDS011;65463;43.864;20.136;2023-01-04T19:59:56;749.20;;;110.55;;
55218;SDS011;65463;43.864;20.136;2023-01-04T20:02:23;608.25;;;88.82;;
55218;SDS011;65463;43.864;20.136;2023-01-04T20:04:49;655.28;;;108.05;;
55218;SDS011;65463;43.864;20.136;2023-01-04T20:07:15;800.38;;;122.75;;
55218;SDS011;65463;43.864;20.136;2023-01-04T20:09:41;478.55;;;94.35;;
55218;SDS011;65463;43.864;20.136;2023-01-04T20:12:07;605.65;;;99.25;;
55218;SDS011;65463;43.864;20.136;2023-01-04T20:14:33;442.45;;;90.80;;
55218;SDS011;65463;43.864;20.136;2023-01-04T20:17:00;618.72;;;104.03;;
55218;SDS011;65463;43.864;20.136;2023-01-04T20:19:26;590.45;;;106.68;;
55218;SDS011;65463;43.864;20.136;2023-01-04T20:21:52;840.92;;;124.10;;
55218;SDS011;65463;43.864;20.136;2023-01-04T20:24:18;612.88;;;117.78;;
55218;SDS011;65463;43.864;20.136;2023-01-04T20:26:44;593.17;;;112.22;;
55218;SDS011;65463;43.864;20.136;2023-01-04T20:29:10;824.70;;;128.18;;
55218;SDS011;65463;43.864;20.136;2023-01-04T20:31:36;545.65;;;105.72;;
55218;SDS011;65463;43.864;20.136;2023-01-04T20:34:03;727.55;;;120.25;;
55218;SDS011;65463;43.864;20.136;2023-01-04T20:36:29;602.25;;;101.50;;
55218;SDS011;65463;43.864;20.136;2023-01-04T20:38:55;700.67;;;110.30;;
55218;SDS011;65463;43.864;20.136;2023-01-04T20:41:26;269.05;;;71.75;;
55218;SDS011;65463;43.864;20.136;2023-01-04T20:43:56;613.65;;;109.50;;
55218;SDS011;65463;43.864;20.136;2023-01-04T20:46:24;647.75;;;110.07;;
55218;SDS011;65463;43.864;20.136;2023-01-04T20:48:51;543.17;;;106.90;;
55218;SDS011;65463;43.864;20.136;2023-01-04T20:51:18;451.50;;;96.97;;
55218;SDS011;65463;43.864;20.136;2023-01-04T20:53:45;277.77;;;68.55;;
55218;SDS011;65463;43.864;20.136;2023-01-04T20:56:16;699.28;;;153.15;;
55218;SDS011;65463;43.864;20.136;2023-01-04T20:58:42;345.98;;;86.78;;
55218;SDS011;65463;43.864;20.136;2023-01-04T21:01:09;232.65;;;67.85;;
55218;SDS011;65463;43.864;20.136;2023-01-04T21:03:36;298.65;;;70.25;;
55218;SDS011;65463;43.864;20.136;2023-01-04T21:06:02;305.45;;;68.85;;
55218;SDS011;65463;43.864;20.136;2023-01-04T21:08:29;255.20;;;63.75;;
55218;SDS011;65463;43.864;20.136;2023-01-04T21:10:55;263.05;;;65.38;;
55218;SDS011;65463;43.864;20.136;2023-01-04T21:13:21;216.75;;;63.90;;
55218;SDS011;65463;43.864;20.136;2023-01-04T21:15:48;352.52;;;73.43;;
55218;SDS011;65463;43.864;20.136;2023-01-04T21:18:14;409.85;;;84.13;;
55218;SDS011;65463;43.864;20.136;2023-01-04T21:20:41;544.28;;;106.80;;
55218;SDS011;65463;43.864;20.136;2023-01-04T21:23:12;589.47;;;113.25;;
55218;SDS011;65463;43.864;20.136;2023-01-04T21:28:04;596.30;;;102.57;;
55218;SDS011;65463;43.864;20.136;2023-01-04T21:30:31;651.63;;;110.35;;
55218;SDS011;65463;43.864;20.136;2023-01-04T21:32:57;591.42;;;109.60;;
55218;SDS011;65463;43.864;20.136;2023-01-04T21:35:24;604.25;;;105.53;;
55218;SDS011;65463;43.864;20.136;2023-01-04T21:37:51;323.42;;;89.68;;
55218;SDS011;65463;43.864;20.136;2023-01-04T21:40:17;472.20;;;104.18;;
55218;SDS011;65463;43.864;20.136;2023-01-04T21:42:43;573.75;;;109.30;;
55218;SDS011;65463;43.864;20.136;2023-01-04T21:45:10;923.83;;;141.85;;
55218;SDS011;65463;43.864;20.136;2023-01-04T21:47:36;982.30;;;149.68;;
55218;SDS011;65463;43.864;20.136;2023-01-04T21:50:03;599.33;;;109.90;;
55218;SDS011;65463;43.864;20.136;2023-01-04T21:52:29;967.35;;;135.75;;
55218;SDS011;65463;43.864;20.136;2023-01-04T21:54:55;479.98;;;109.65;;
55218;SDS011;65463;43.864;20.136;2023-01-04T21:57:21;366.48;;;94.45;;
55218;SDS011;65463;43.864;20.136;2023-01-04T21:59:47;594.05;;;120.13;;
55218;SDS011;65463;43.864;20.136;2023-01-04T22:02:14;707.30;;;131.20;;
55218;SDS011;65463;43.864;20.136;2023-01-04T22:04:40;232.68;;;75.97;;
55218;SDS011;65463;43.864;20.136;2023-01-04T22:07:07;213.40;;;72.88;;
55218;SDS011;65463;43.864;20.136;2023-01-04T22:09:33;220.25;;;70.53;;
55218;SDS011;65463;43.864;20.136;2023-01-04T22:11:59;732.60;;;119.13;;
55218;SDS011;65463;43.864;20.136;2023-01-04T22:14:26;516.67;;;101.93;;
55218;SDS011;65463;43.864;20.136;2023-01-04T22:16:52;154.57;;;51.92;;
55218;SDS011;65463;43.864;20.136;2023-01-04T22:19:18;168.52;;;47.40;;
55218;SDS011;65463;43.864;20.136;2023-01-04T22:21:45;143.13;;;41.78;;
55218;SDS011;65463;43.864;20.136;2023-01-04T22:24:11;128.07;;;44.60;;
55218;SDS011;65463;43.864;20.136;2023-01-04T22:26:38;323.13;;;66.60;;
55218;SDS011;65463;43.864;20.136;2023-01-04T22:29:04;348.42;;;77.30;;
55218;SDS011;65463;43.864;20.136;2023-01-04T22:31:31;273.52;;;62.42;;
55218;SDS011;65463;43.864;20.136;2023-01-04T22:33:57;200.57;;;57.13;;
55218;SDS011;65463;43.864;20.136;2023-01-04T22:36:23;379.27;;;77.20;;
55218;SDS011;65463;43.864;20.136;2023-01-04T22:38:50;397.50;;;79.20;;
55218;SDS011;65463;43.864;20.136;2023-01-04T22:41:17;437.13;;;89.63;;
55218;SDS011;65463;43.864;20.136;2023-01-04T22:43:45;271.38;;;63.85;;
55218;SDS011;65463;43.864;20.136;2023-01-04T22:46:12;353.98;;;78.22;;
55218;SDS011;65463;43.864;20.136;2023-01-04T22:48:39;440.77;;;95.20;;
55218;SDS011;65463;43.864;20.136;2023-01-04T22:51:06;316.75;;;80.78;;
55218;SDS011;65463;43.864;20.136;2023-01-04T22:53:32;501.10;;;102.20;;
55218;SDS011;65463;43.864;20.136;2023-01-04T22:55:58;476.73;;;107.45;;
55218;SDS011;65463;43.864;20.136;2023-01-04T22:58:24;697.05;;;131.25;;
55218;SDS011;65463;43.864;20.136;2023-01-04T23:00:49;475.23;;;110.13;;
55218;SDS011;65463;43.864;20.136;2023-01-04T23:03:15;419.67;;;108.45;;
55218;SDS011;65463;43.864;20.136;2023-01-04T23:05:41;414.80;;;104.25;;
55218;SDS011;65463;43.864;20.136;2023-01-04T23:08:07;540.72;;;121.10;;
55218;SDS011;65463;43.864;20.136;2023-01-04T23:10:35;404.27;;;106.38;;
55218;SDS011;65463;43.864;20.136;2023-01-04T23:13:02;424.17;;;101.50;;
55218;SDS011;65463;43.864;20.136;2023-01-04T23:15:28;671.92;;;143.13;;
55218;SDS011;65463;43.864;20.136;2023-01-04T23:17:54;591.97;;;142.70;;
55218;SDS011;65463;43.864;20.136;2023-01-04T23:20:21;863.00;;;207.32;;
55218;SDS011;65463;43.864;20.136;2023-01-04T23:22:47;503.48;;;143.75;;
55218;SDS011;65463;43.864;20.136;2023-01-04T23:25:13;620.55;;;165.02;;
55218;SDS011;65463;43.864;20.136;2023-01-04T23:27:39;401.33;;;117.25;;
55218;SDS011;65463;43.864;20.136;2023-01-04T23:30:05;501.60;;;129.32;;
55218;SDS011;65463;43.864;20.136;2023-01-04T23:32:32;366.33;;;106.07;;
55218;SDS011;65463;43.864;20.136;2023-01-04T23:34:58;326.05;;;97.63;;
55218;SDS011;65463;43.864;20.136;2023-01-04T23:37:24;265.55;;;87.88;;
55218;SDS011;65463;43.864;20.136;2023-01-04T23:39:50;331.15;;;103.97;;
55218;SDS011;65463;43.864;20.136;2023-01-04T23:42:16;236.10;;;83.75;;
55218;SDS011;65463;43.864;20.136;2023-01-04T23:44:42;231.30;;;85.28;;
55218;SDS011;65463;43.864;20.136;2023-01-04T23:47:08;445.30;;;120.10;;
55218;SDS011;65463;43.864;20.136;2023-01-04T23:49:35;631.65;;;152.65;;
55218;SDS011;65463;43.864;20.136;2023-01-04T23:52:03;547.35;;;152.50;;
55218;SDS011;65463;43.864;20.136;2023-01-04T23:54:29;461.67;;;136.23;;
55218;SDS011;65463;43.864;20.136;2023-01-04T23:56:56;503.35;;;138.68;;
55218;SDS011;65463;43.864;20.136;2023-01-04T23:59:22;542.10;;;138.90;;
